sensor_id;sensor_type;location;lat;lon;timestamp;pressure;altitude;pressure_sealevel;temperature
75428;BMP280;64008;55.612;37.698;2023-06-22T00:01:51;99912.94;;;19.64
75428;BMP280;64008;55.612;37.698;2023-06-22T00:04:16;99915.03;;;19.68
75428;BMP280;64008;55.612;37.698;2023-06-22T00:06:42;99925.63;;;19.54
75428;BMP280;64008;55.612;37.698;2023-06-22T00:09:07;99910.03;;;19.61
75428;BMP280;64008;55.612;37.698;2023-06-22T00:11:33;99910.78;;;19.67
75428;BMP280;64008;55.612;37.698;2023-06-22T00:14:02;99912.13;;;19.40
75428;BMP280;64008;55.612;37.698;2023-06-22T00:16:28;99917.03;;;19.33
75428;BMP280;64008;55.612;37.698;2023-06-22T00:18:54;99914.34;;;19.33
75428;BMP280;64008;55.612;37.698;2023-06-22T00:21:19;99908.28;;;19.51
75428;BMP280;64008;55.612;37.698;2023-06-22T00:23:48;99907.06;;;19.38
75428;BMP280;64008;55.612;37.698;2023-06-22T00:26:13;99913.63;;;19.22
75428;BMP280;64008;55.612;37.698;2023-06-22T00:28:39;99910.19;;;19.46
75428;BMP280;64008;55.612;37.698;2023-06-22T00:31:04;99916.31;;;19.51
75428;BMP280;64008;55.612;37.698;2023-06-22T00:33:30;99914.56;;;19.36
75428;BMP280;64008;55.612;37.698;2023-06-22T00:35:56;99926.56;;;19.44
75428;BMP280;64008;55.612;37.698;2023-06-22T00:38:22;99924.59;;;20.17
75428;BMP280;64008;55.612;37.698;2023-06-22T00:40:48;99929.91;;;20.41
75428;BMP280;64008;55.612;37.698;2023-06-22T00:43:13;99918.84;;;20.42
75428;BMP280;64008;55.612;37.698;2023-06-22T00:45:39;99913.47;;;20.42
75428;BMP280;64008;55.612;37.698;2023-06-22T00:48:05;99921.41;;;20.34
75428;BMP280;64008;55.612;37.698;2023-06-22T00:50:32;99920.03;;;20.36
75428;BMP280;64008;55.612;37.698;2023-06-22T00:53:05;99916.69;;;20.44
75428;BMP280;64008;55.612;37.698;2023-06-22T00:55:35;99920.38;;;20.48
75428;BMP280;64008;55.612;37.698;2023-06-22T00:58:03;99924.09;;;20.52
75428;BMP280;64008;55.612;37.698;2023-06-22T01:00:31;99925.97;;;20.52
75428;BMP280;64008;55.612;37.698;2023-06-22T01:02:58;99907.03;;;20.43
75428;BMP280;64008;55.612;37.698;2023-06-22T01:05:24;99917.03;;;20.38
75428;BMP280;64008;55.612;37.698;2023-06-22T01:10:58;99912.53;;;20.33
75428;BMP280;64008;55.612;37.698;2023-06-22T01:16:35;99921.72;;;20.32
75428;BMP280;64008;55.612;37.698;2023-06-22T01:19:09;99924.59;;;20.36
75428;BMP280;64008;55.612;37.698;2023-06-22T01:21:41;99919.03;;;20.32
75428;BMP280;64008;55.612;37.698;2023-06-22T01:24:14;99927.28;;;20.36
75428;BMP280;64008;55.612;37.698;2023-06-22T01:29:35;99920.75;;;20.42
75428;BMP280;64008;55.612;37.698;2023-06-22T01:32:03;99922.72;;;20.36
75428;BMP280;64008;55.612;37.698;2023-06-22T01:34:31;99925.94;;;20.33
75428;BMP280;64008;55.612;37.698;2023-06-22T01:36:59;99929.66;;;20.37
75428;BMP280;64008;55.612;37.698;2023-06-22T01:39:25;99922.72;;;20.36
75428;BMP280;64008;55.612;37.698;2023-06-22T01:41:52;99920.31;;;20.35
75428;BMP280;64008;55.612;37.698;2023-06-22T01:44:18;99924.28;;;20.37
75428;BMP280;64008;55.612;37.698;2023-06-22T01:46:44;99924.28;;;20.37
75428;BMP280;64008;55.612;37.698;2023-06-22T01:49:10;99917.09;;;20.33
75428;BMP280;64008;55.612;37.698;2023-06-22T01:51:36;99917.91;;;20.33
75428;BMP280;64008;55.612;37.698;2023-06-22T01:54:02;99913.56;;;20.37
75428;BMP280;64008;55.612;37.698;2023-06-22T01:56:28;99923.81;;;20.35
75428;BMP280;64008;55.612;37.698;2023-06-22T02:01:38;99922.78;;;20.31
75428;BMP280;64008;55.612;37.698;2023-06-22T02:04:20;99921.72;;;20.32
75428;BMP280;64008;55.612;37.698;2023-06-22T02:06:49;99931.31;;;20.33
75428;BMP280;64008;55.612;37.698;2023-06-22T02:09:19;99929.25;;;20.30
75428;BMP280;64008;55.612;37.698;2023-06-22T02:11:46;99910.41;;;20.35
75428;BMP280;64008;55.612;37.698;2023-06-22T02:14:13;99915.16;;;20.38
75428;BMP280;64008;55.612;37.698;2023-06-22T02:16:40;99925.03;;;20.43
75428;BMP280;64008;55.612;37.698;2023-06-22T02:19:06;99923.06;;;20.48
75428;BMP280;64008;55.612;37.698;2023-06-22T02:21:31;99917.97;;;20.47
75428;BMP280;64008;55.612;37.698;2023-06-22T02:23:58;99912.81;;;20.50
75428;BMP280;64008;55.612;37.698;2023-06-22T02:26:25;99916.63;;;20.49
75428;BMP280;64008;55.612;37.698;2023-06-22T02:28:51;99913.63;;;20.51
75428;BMP280;64008;55.612;37.698;2023-06-22T02:31:17;99906.47;;;20.46
75428;BMP280;64008;55.612;37.698;2023-06-22T02:33:42;99911.75;;;20.51
75428;BMP280;64008;55.612;37.698;2023-06-22T02:36:09;99908.78;;;20.53
75428;BMP280;64008;55.612;37.698;2023-06-22T02:38:37;99896.16;;;20.53
75428;BMP280;64008;55.612;37.698;2023-06-22T02:41:03;99892.88;;;20.57
75428;BMP280;64008;55.612;37.698;2023-06-22T02:43:28;99900.06;;;20.61
75428;BMP280;64008;55.612;37.698;2023-06-22T02:45:55;99892.78;;;20.62
75428;BMP280;64008;55.612;37.698;2023-06-22T02:48:20;99893.91;;;20.61
75428;BMP280;64008;55.612;37.698;2023-06-22T02:50:46;99901.66;;;20.62
75428;BMP280;64008;55.612;37.698;2023-06-22T02:53:11;99894.09;;;20.64
75428;BMP280;64008;55.612;37.698;2023-06-22T02:55:37;99887.94;;;20.64
75428;BMP280;64008;55.612;37.698;2023-06-22T02:58:05;99891.59;;;20.68
75428;BMP280;64008;55.612;37.698;2023-06-22T03:00:31;99893.03;;;20.65
75428;BMP280;64008;55.612;37.698;2023-06-22T03:02:57;99883.06;;;20.66
75428;BMP280;64008;55.612;37.698;2023-06-22T03:05:23;99888.44;;;20.66
75428;BMP280;64008;55.612;37.698;2023-06-22T03:07:49;99884.88;;;20.70
75428;BMP280;64008;55.612;37.698;2023-06-22T03:10:15;99882.19;;;20.70
75428;BMP280;64008;55.612;37.698;2023-06-22T03:12:41;99876.50;;;20.72
75428;BMP280;64008;55.612;37.698;2023-06-22T03:15:09;99885.66;;;20.71
75428;BMP280;64008;55.612;37.698;2023-06-22T03:17:36;99884.47;;;20.77
75428;BMP280;64008;55.612;37.698;2023-06-22T03:20:03;99884.47;;;20.77
75428;BMP280;64008;55.612;37.698;2023-06-22T03:22:39;99875.41;;;20.73
75428;BMP280;64008;55.612;37.698;2023-06-22T03:25:06;99880.19;;;20.76
75428;BMP280;64008;55.612;37.698;2023-06-22T03:27:38;99885.28;;;20.78
75428;BMP280;64008;55.612;37.698;2023-06-22T03:30:04;99871.56;;;20.79
75428;BMP280;64008;55.612;37.698;2023-06-22T03:32:30;99867.50;;;20.82
75428;BMP280;64008;55.612;37.698;2023-06-22T03:34:55;99882.78;;;20.81
75428;BMP280;64008;55.612;37.698;2023-06-22T03:37:24;99875.75;;;20.85
75428;BMP280;64008;55.612;37.698;2023-06-22T03:39:50;99868.19;;;20.87
75428;BMP280;64008;55.612;37.698;2023-06-22T03:42:16;99874.84;;;20.90
75428;BMP280;64008;55.612;37.698;2023-06-22T03:44:41;99870.00;;;20.92
75428;BMP280;64008;55.612;37.698;2023-06-22T03:47:07;99866.72;;;20.95
75428;BMP280;64008;55.612;37.698;2023-06-22T03:49:33;99867.50;;;20.95
75428;BMP280;64008;55.612;37.698;2023-06-22T03:52:00;99859.56;;;21.04
75428;BMP280;64008;55.612;37.698;2023-06-22T03:54:26;99857.66;;;21.05
75428;BMP280;64008;55.612;37.698;2023-06-22T03:56:53;99855.47;;;21.07
75428;BMP280;64008;55.612;37.698;2023-06-22T03:59:18;99853.00;;;21.10
75428;BMP280;64008;55.612;37.698;2023-06-22T04:01:44;99860.13;;;21.15
75428;BMP280;64008;55.612;37.698;2023-06-22T04:04:10;99854.16;;;21.18
75428;BMP280;64008;55.612;37.698;2023-06-22T04:06:35;99863.22;;;21.22
75428;BMP280;64008;55.612;37.698;2023-06-22T04:09:01;99857.06;;;21.22
75428;BMP280;64008;55.612;37.698;2023-06-22T04:11:26;99851.09;;;21.25
75428;BMP280;64008;55.612;37.698;2023-06-22T04:13:52;99852.38;;;21.27
75428;BMP280;64008;55.612;37.698;2023-06-22T04:16:17;99849.09;;;21.30
75428;BMP280;64008;55.612;37.698;2023-06-22T04:18:43;99840.63;;;21.37
75428;BMP280;64008;55.612;37.698;2023-06-22T04:21:10;99841.66;;;21.41
75428;BMP280;64008;55.612;37.698;2023-06-22T04:23:35;99842.81;;;21.49
75428;BMP280;64008;55.612;37.698;2023-06-22T04:26:01;99843.31;;;21.51
75428;BMP280;64008;55.612;37.698;2023-06-22T04:28:26;99830.53;;;21.56
75428;BMP280;64008;55.612;37.698;2023-06-22T04:30:52;99833.41;;;21.60
75428;BMP280;64008;55.612;37.698;2023-06-22T04:33:17;99827.94;;;21.65
75428;BMP280;64008;55.612;37.698;2023-06-22T04:35:46;99825.16;;;21.70
75428;BMP280;64008;55.612;37.698;2023-06-22T04:38:12;99825.16;;;21.70
75428;BMP280;64008;55.612;37.698;2023-06-22T04:40:39;99825.06;;;21.84
75428;BMP280;64008;55.612;37.698;2023-06-22T04:43:05;99834.47;;;21.87
75428;BMP280;64008;55.612;37.698;2023-06-22T04:45:34;99828.47;;;21.90
75428;BMP280;64008;55.612;37.698;2023-06-22T04:48:03;99830.09;;;21.99
75428;BMP280;64008;55.612;37.698;2023-06-22T04:50:29;99823.16;;;21.98
75428;BMP280;64008;55.612;37.698;2023-06-22T04:52:54;99832.78;;;21.99
75428;BMP280;64008;55.612;37.698;2023-06-22T04:55:20;99824.44;;;22.01
75428;BMP280;64008;55.612;37.698;2023-06-22T04:57:46;99822.53;;;22.01
75428;BMP280;64008;55.612;37.698;2023-06-22T05:00:16;99814.91;;;22.03
75428;BMP280;64008;55.612;37.698;2023-06-22T05:02:43;99822.25;;;22.03
75428;BMP280;64008;55.612;37.698;2023-06-22T05:05:10;99822.69;;;22.05
75428;BMP280;64008;55.612;37.698;2023-06-22T05:07:50;99818.31;;;22.09
75428;BMP280;64008;55.612;37.698;2023-06-22T05:10:18;99822.28;;;22.12
75428;BMP280;64008;55.612;37.698;2023-06-22T05:12:44;99826.28;;;22.14
75428;BMP280;64008;55.612;37.698;2023-06-22T05:15:10;99826.28;;;22.14
75428;BMP280;64008;55.612;37.698;2023-06-22T05:17:36;99830.84;;;22.14
75428;BMP280;64008;55.612;37.698;2023-06-22T05:20:06;99834.19;;;22.19
75428;BMP280;64008;55.612;37.698;2023-06-22T05:22:32;99818.38;;;22.18
75428;BMP280;64008;55.612;37.698;2023-06-22T05:24:58;99827.25;;;22.18
75428;BMP280;64008;55.612;37.698;2023-06-22T05:27:23;99824.41;;;22.23
75428;BMP280;64008;55.612;37.698;2023-06-22T05:29:49;99824.59;;;22.27
75428;BMP280;64008;55.612;37.698;2023-06-22T05:32:14;99814.16;;;22.25
75428;BMP280;64008;55.612;37.698;2023-06-22T05:34:40;99818.44;;;22.26
75428;BMP280;64008;55.612;37.698;2023-06-22T05:37:05;99814.94;;;22.26
75428;BMP280;64008;55.612;37.698;2023-06-22T05:39:31;99818.75;;;22.25
75428;BMP280;64008;55.612;37.698;2023-06-22T05:41:57;99819.69;;;22.29
75428;BMP280;64008;55.612;37.698;2023-06-22T05:44:22;99829.56;;;22.34
75428;BMP280;64008;55.612;37.698;2023-06-22T05:46:48;99820.06;;;22.36
75428;BMP280;64008;55.612;37.698;2023-06-22T05:49:14;99819.78;;;22.38
75428;BMP280;64008;55.612;37.698;2023-06-22T05:51:40;99819.78;;;22.38
75428;BMP280;64008;55.612;37.698;2023-06-22T05:54:05;99828.69;;;22.47
75428;BMP280;64008;55.612;37.698;2023-06-22T05:56:31;99821.88;;;22.49
75428;BMP280;64008;55.612;37.698;2023-06-22T05:58:56;99819.81;;;22.46
75428;BMP280;64008;55.612;37.698;2023-06-22T06:01:22;99816.00;;;22.47
75428;BMP280;64008;55.612;37.698;2023-06-22T06:03:48;99819.66;;;22.51
75428;BMP280;64008;55.612;37.698;2023-06-22T06:06:15;99821.72;;;22.55
75428;BMP280;64008;55.612;37.698;2023-06-22T06:08:41;99831.25;;;22.52
75428;BMP280;64008;55.612;37.698;2023-06-22T06:11:06;99819.97;;;22.50
75428;BMP280;64008;55.612;37.698;2023-06-22T06:13:32;99815.09;;;22.52
75428;BMP280;64008;55.612;37.698;2023-06-22T06:15:57;99803.56;;;22.60
75428;BMP280;64008;55.612;37.698;2023-06-22T06:18:24;99811.94;;;22.59
75428;BMP280;64008;55.612;37.698;2023-06-22T06:20:49;99810.03;;;22.59
75428;BMP280;64008;55.612;37.698;2023-06-22T06:23:15;99807.69;;;22.66
75428;BMP280;64008;55.612;37.698;2023-06-22T06:25:40;99811.50;;;22.65
75428;BMP280;64008;55.612;37.698;2023-06-22T06:28:06;99809.09;;;22.64
75428;BMP280;64008;55.612;37.698;2023-06-22T06:30:32;99822.13;;;22.70
75428;BMP280;64008;55.612;37.698;2023-06-22T06:32:57;99826.91;;;22.73
75428;BMP280;64008;55.612;37.698;2023-06-22T06:35:23;99812.03;;;22.76
75428;BMP280;64008;55.612;37.698;2023-06-22T06:37:50;99815.97;;;22.79
75428;BMP280;64008;55.612;37.698;2023-06-22T06:40:17;99815.84;;;22.84
75428;BMP280;64008;55.612;37.698;2023-06-22T06:42:47;99814.75;;;22.85
75428;BMP280;64008;55.612;37.698;2023-06-22T06:45:22;99803.97;;;22.85
75428;BMP280;64008;55.612;37.698;2023-06-22T06:47:49;99824.56;;;22.89
75428;BMP280;64008;55.612;37.698;2023-06-22T06:50:15;99810.34;;;22.89
75428;BMP280;64008;55.612;37.698;2023-06-22T06:52:41;99810.00;;;22.90
75428;BMP280;64008;55.612;37.698;2023-06-22T06:55:07;99809.38;;;22.93
75428;BMP280;64008;55.612;37.698;2023-06-22T06:57:37;99819.66;;;22.91
75428;BMP280;64008;55.612;37.698;2023-06-22T07:00:07;99808.25;;;22.86
75428;BMP280;64008;55.612;37.698;2023-06-22T07:02:38;99809.66;;;22.83
75428;BMP280;64008;55.612;37.698;2023-06-22T07:05:05;99810.50;;;22.92
75428;BMP280;64008;55.612;37.698;2023-06-22T07:07:31;99806.81;;;22.88
75428;BMP280;64008;55.612;37.698;2023-06-22T07:09:56;99803.84;;;22.99
75428;BMP280;64008;55.612;37.698;2023-06-22T07:12:22;99798.94;;;23.01
75428;BMP280;64008;55.612;37.698;2023-06-22T07:14:48;99801.63;;;23.09
75428;BMP280;64008;55.612;37.698;2023-06-22T07:17:15;99797.84;;;23.10
75428;BMP280;64008;55.612;37.698;2023-06-22T07:19:41;99813.06;;;23.24
75428;BMP280;64008;55.612;37.698;2023-06-22T07:22:07;99809.13;;;23.30
75428;BMP280;64008;55.612;37.698;2023-06-22T07:24:32;99799.63;;;23.32
75428;BMP280;64008;55.612;37.698;2023-06-22T07:26:58;99802.81;;;23.34
75428;BMP280;64008;55.612;37.698;2023-06-22T07:29:25;99797.09;;;23.36
75428;BMP280;64008;55.612;37.698;2023-06-22T07:31:52;99801.53;;;23.40
75428;BMP280;64008;55.612;37.698;2023-06-22T07:34:18;99788.50;;;23.42
75428;BMP280;64008;55.612;37.698;2023-06-22T07:36:44;99790.44;;;23.42
75428;BMP280;64008;55.612;37.698;2023-06-22T07:39:09;99790.59;;;23.46
75428;BMP280;64008;55.612;37.698;2023-06-22T07:41:35;99786.31;;;23.53
75428;BMP280;64008;55.612;37.698;2023-06-22T07:44:02;99790.91;;;23.53
75428;BMP280;64008;55.612;37.698;2023-06-22T07:46:29;99783.78;;;23.48
75428;BMP280;64008;55.612;37.698;2023-06-22T07:48:56;99786.31;;;23.53
75428;BMP280;64008;55.612;37.698;2023-06-22T07:51:21;99788.19;;;23.61
75428;BMP280;64008;55.612;37.698;2023-06-22T07:53:47;99786.94;;;23.68
75428;BMP280;64008;55.612;37.698;2023-06-22T07:56:13;99792.16;;;23.73
75428;BMP280;64008;55.612;37.698;2023-06-22T07:58:39;99796.81;;;23.72
75428;BMP280;64008;55.612;37.698;2023-06-22T08:01:05;99791.84;;;23.74
75428;BMP280;64008;55.612;37.698;2023-06-22T08:03:31;99780.91;;;23.79
75428;BMP280;64008;55.612;37.698;2023-06-22T08:05:57;99785.66;;;23.82
75428;BMP280;64008;55.612;37.698;2023-06-22T08:08:23;99796.59;;;23.86
75428;BMP280;64008;55.612;37.698;2023-06-22T08:10:49;99782.78;;;23.88
75428;BMP280;64008;55.612;37.698;2023-06-22T08:13:15;99785.03;;;23.85
75428;BMP280;64008;55.612;37.698;2023-06-22T08:15:40;99775.97;;;23.90
75428;BMP280;64008;55.612;37.698;2023-06-22T08:18:06;99776.91;;;23.94
75428;BMP280;64008;55.612;37.698;2023-06-22T08:20:31;99767.38;;;23.97
75428;BMP280;64008;55.612;37.698;2023-06-22T08:22:57;99772.28;;;24.03
75428;BMP280;64008;55.612;37.698;2023-06-22T08:25:25;99775.75;;;24.04
75428;BMP280;64008;55.612;37.698;2023-06-22T08:27:51;99769.84;;;24.11
75428;BMP280;64008;55.612;37.698;2023-06-22T08:30:18;99772.88;;;24.18
75428;BMP280;64008;55.612;37.698;2023-06-22T08:32:44;99769.94;;;24.40
75428;BMP280;64008;55.612;37.698;2023-06-22T08:35:09;99770.09;;;24.35
75428;BMP280;64008;55.612;37.698;2023-06-22T08:37:35;99777.13;;;24.57
75428;BMP280;64008;55.612;37.698;2023-06-22T08:40:03;99769.19;;;24.61
75428;BMP280;64008;55.612;37.698;2023-06-22T08:42:40;99752.56;;;24.50
75428;BMP280;64008;55.612;37.698;2023-06-22T08:45:07;99760.66;;;24.50
75428;BMP280;64008;55.612;37.698;2023-06-22T08:47:32;99758.22;;;24.57
75428;BMP280;64008;55.612;37.698;2023-06-22T08:49:58;99757.06;;;24.67
75428;BMP280;64008;55.612;37.698;2023-06-22T08:52:24;99751.94;;;24.74
75428;BMP280;64008;55.612;37.698;2023-06-22T08:54:49;99762.31;;;24.72
75428;BMP280;64008;55.612;37.698;2023-06-22T08:57:15;99763.41;;;24.71
75428;BMP280;64008;55.612;37.698;2023-06-22T08:59:41;99755.28;;;24.71
75428;BMP280;64008;55.612;37.698;2023-06-22T09:02:07;99749.66;;;24.55
75428;BMP280;64008;55.612;37.698;2023-06-22T09:04:32;99746.38;;;24.49
75428;BMP280;64008;55.612;37.698;2023-06-22T09:07:03;99742.84;;;24.58
75428;BMP280;64008;55.612;37.698;2023-06-22T09:09:29;99748.94;;;24.67
75428;BMP280;64008;55.612;37.698;2023-06-22T09:11:54;99740.91;;;24.58
75428;BMP280;64008;55.612;37.698;2023-06-22T09:14:20;99747.44;;;24.78
75428;BMP280;64008;55.612;37.698;2023-06-22T09:16:45;99733.75;;;24.62
75428;BMP280;64008;55.612;37.698;2023-06-22T09:19:11;99747.44;;;24.78
75428;BMP280;64008;55.612;37.698;2023-06-22T09:21:37;99736.97;;;24.76
75428;BMP280;64008;55.612;37.698;2023-06-22T09:24:03;99733.50;;;24.76
75428;BMP280;64008;55.612;37.698;2023-06-22T09:26:29;99730.84;;;24.88
75428;BMP280;64008;55.612;37.698;2023-06-22T09:28:55;99720.84;;;24.89
75428;BMP280;64008;55.612;37.698;2023-06-22T09:31:20;99716.38;;;24.93
75428;BMP280;64008;55.612;37.698;2023-06-22T09:33:54;99724.31;;;24.89
75428;BMP280;64008;55.612;37.698;2023-06-22T09:36:21;99735.13;;;24.89
75428;BMP280;64008;55.612;37.698;2023-06-22T09:38:47;99729.59;;;24.86
75428;BMP280;64008;55.612;37.698;2023-06-22T09:41:12;99711.94;;;24.88
75428;BMP280;64008;55.612;37.698;2023-06-22T09:43:38;99714.25;;;24.98
75428;BMP280;64008;55.612;37.698;2023-06-22T09:46:03;99724.16;;;24.94
75428;BMP280;64008;55.612;37.698;2023-06-22T09:48:29;99709.88;;;25.06
75428;BMP280;64008;55.612;37.698;2023-06-22T09:50:56;99709.81;;;25.15
75428;BMP280;64008;55.612;37.698;2023-06-22T09:53:21;99715.41;;;25.10
75428;BMP280;64008;55.612;37.698;2023-06-22T09:55:47;99704.72;;;25.13
75428;BMP280;64008;55.612;37.698;2023-06-22T09:58:13;99716.81;;;25.16
75428;BMP280;64008;55.612;37.698;2023-06-22T10:00:38;99705.22;;;25.15
75428;BMP280;64008;55.612;37.698;2023-06-22T10:03:04;99697.13;;;25.15
75428;BMP280;64008;55.612;37.698;2023-06-22T10:05:29;99713.00;;;25.17
75428;BMP280;64008;55.612;37.698;2023-06-22T10:07:55;99703.31;;;25.16
75428;BMP280;64008;55.612;37.698;2023-06-22T10:10:20;99689.69;;;25.25
75428;BMP280;64008;55.612;37.698;2023-06-22T10:12:53;99699.44;;;25.38
75428;BMP280;64008;55.612;37.698;2023-06-22T10:15:19;99705.50;;;25.35
75428;BMP280;64008;55.612;37.698;2023-06-22T10:17:46;99706.63;;;25.34
75428;BMP280;64008;55.612;37.698;2023-06-22T10:20:12;99698.84;;;25.32
75428;BMP280;64008;55.612;37.698;2023-06-22T10:22:42;99693.03;;;25.42
75428;BMP280;64008;55.612;37.698;2023-06-22T10:25:09;99688.84;;;25.45
75428;BMP280;64008;55.612;37.698;2023-06-22T10:27:35;99694.38;;;25.49
75428;BMP280;64008;55.612;37.698;2023-06-22T10:30:00;99670.50;;;25.51
75428;BMP280;64008;55.612;37.698;2023-06-22T10:32:26;99668.25;;;25.53
75428;BMP280;64008;55.612;37.698;2023-06-22T10:34:54;99667.69;;;25.59
75428;BMP280;64008;55.612;37.698;2023-06-22T10:37:19;99663.31;;;25.67
75428;BMP280;64008;55.612;37.698;2023-06-22T10:39:45;99670.88;;;25.74
75428;BMP280;64008;55.612;37.698;2023-06-22T10:42:11;99653.53;;;25.75
75428;BMP280;64008;55.612;37.698;2023-06-22T10:44:37;99653.81;;;25.85
75428;BMP280;64008;55.612;37.698;2023-06-22T10:47:04;99647.53;;;25.94
75428;BMP280;64008;55.612;37.698;2023-06-22T10:49:30;99643.91;;;26.02
75428;BMP280;64008;55.612;37.698;2023-06-22T10:51:55;99641.88;;;26.11
75428;BMP280;64008;55.612;37.698;2023-06-22T10:54:20;99642.78;;;26.15
75428;BMP280;64008;55.612;37.698;2023-06-22T10:56:46;99644.81;;;26.18
75428;BMP280;64008;55.612;37.698;2023-06-22T10:59:11;99640.06;;;26.03
75428;BMP280;64008;55.612;37.698;2023-06-22T11:01:37;99651.00;;;26.06
75428;BMP280;64008;55.612;37.698;2023-06-22T11:04:03;99643.22;;;26.17
75428;BMP280;64008;55.612;37.698;2023-06-22T11:06:29;99630.94;;;26.20
75428;BMP280;64008;55.612;37.698;2023-06-22T11:08:54;99624.25;;;26.17
75428;BMP280;64008;55.612;37.698;2023-06-22T11:11:20;99625.19;;;26.21
75428;BMP280;64008;55.612;37.698;2023-06-22T11:13:45;99628.13;;;26.04
75428;BMP280;64008;55.612;37.698;2023-06-22T11:16:11;99630.00;;;26.15
75428;BMP280;64008;55.612;37.698;2023-06-22T11:18:36;99632.97;;;26.10
75428;BMP280;64008;55.612;37.698;2023-06-22T11:21:02;99627.56;;;26.10
75428;BMP280;64008;55.612;37.698;2023-06-22T11:23:27;99612.41;;;26.09
75428;BMP280;64008;55.612;37.698;2023-06-22T11:25:56;99613.69;;;26.12
75428;BMP280;64008;55.612;37.698;2023-06-22T11:28:21;99610.03;;;26.20
75428;BMP280;64008;55.612;37.698;2023-06-22T11:30:47;99604.28;;;26.22
75428;BMP280;64008;55.612;37.698;2023-06-22T11:33:12;99612.41;;;26.22
75428;BMP280;64008;55.612;37.698;2023-06-22T11:35:38;99619.75;;;26.21
75428;BMP280;64008;55.612;37.698;2023-06-22T11:38:03;99615.66;;;26.27
75428;BMP280;64008;55.612;37.698;2023-06-22T11:40:30;99616.38;;;26.24
75428;BMP280;64008;55.612;37.698;2023-06-22T11:42:56;99613.44;;;26.17
75428;BMP280;64008;55.612;37.698;2023-06-22T11:45:21;99598.19;;;26.12
75428;BMP280;64008;55.612;37.698;2023-06-22T11:47:47;99599.22;;;26.08
75428;BMP280;64008;55.612;37.698;2023-06-22T11:50:13;99593.44;;;26.09
75428;BMP280;64008;55.612;37.698;2023-06-22T11:52:38;99596.75;;;26.15
75428;BMP280;64008;55.612;37.698;2023-06-22T11:55:05;99595.81;;;26.23
75428;BMP280;64008;55.612;37.698;2023-06-22T11:57:36;99588.25;;;26.29
75428;BMP280;64008;55.612;37.698;2023-06-22T12:00:03;99582.91;;;26.32
75428;BMP280;64008;55.612;37.698;2023-06-22T12:02:41;99564.75;;;26.33
75428;BMP280;64008;55.612;37.698;2023-06-22T12:05:07;99577.69;;;26.40
75428;BMP280;64008;55.612;37.698;2023-06-22T12:07:33;99564.25;;;26.43
75428;BMP280;64008;55.612;37.698;2023-06-22T12:09:58;99562.13;;;26.49
75428;BMP280;64008;55.612;37.698;2023-06-22T12:12:24;99566.34;;;26.50
75428;BMP280;64008;55.612;37.698;2023-06-22T12:14:49;99578.53;;;26.56
75428;BMP280;64008;55.612;37.698;2023-06-22T12:17:15;99550.31;;;26.57
75428;BMP280;64008;55.612;37.698;2023-06-22T12:19:40;99548.81;;;26.59
75428;BMP280;64008;55.612;37.698;2023-06-22T12:22:06;99546.38;;;26.54
75428;BMP280;64008;55.612;37.698;2023-06-22T12:24:31;99547.75;;;26.48
75428;BMP280;64008;55.612;37.698;2023-06-22T12:26:57;99534.91;;;26.45
75428;BMP280;64008;55.612;37.698;2023-06-22T12:29:22;99546.44;;;26.42
75428;BMP280;64008;55.612;37.698;2023-06-22T12:31:48;99534.91;;;26.45
75428;BMP280;64008;55.612;37.698;2023-06-22T12:34:13;99537.06;;;26.40
75428;BMP280;64008;55.612;37.698;2023-06-22T12:36:39;99536.81;;;26.45
75428;BMP280;64008;55.612;37.698;2023-06-22T12:39:04;99537.97;;;26.44
75428;BMP280;64008;55.612;37.698;2023-06-22T12:41:30;99529.72;;;26.40
75428;BMP280;64008;55.612;37.698;2023-06-22T12:43:55;99527.13;;;26.44
75428;BMP280;64008;55.612;37.698;2023-06-22T12:46:21;99522.41;;;26.41
75428;BMP280;64008;55.612;37.698;2023-06-22T12:48:46;99515.22;;;26.48
75428;BMP280;64008;55.612;37.698;2023-06-22T12:51:12;99517.78;;;26.57
75428;BMP280;64008;55.612;37.698;2023-06-22T12:53:37;99521.19;;;26.54
75428;BMP280;64008;55.612;37.698;2023-06-22T12:56:03;99518.81;;;26.52
75428;BMP280;64008;55.612;37.698;2023-06-22T12:58:29;99512.16;;;26.50
75428;BMP280;64008;55.612;37.698;2023-06-22T13:00:54;99506.41;;;26.51
75428;BMP280;64008;55.612;37.698;2023-06-22T13:03:20;99506.25;;;26.60
75428;BMP280;64008;55.612;37.698;2023-06-22T13:05:45;99510.38;;;26.70
75428;BMP280;64008;55.612;37.698;2023-06-22T13:08:10;99506.09;;;26.69
75428;BMP280;64008;55.612;37.698;2023-06-22T13:10:36;99502.44;;;26.77
75428;BMP280;64008;55.612;37.698;2023-06-22T13:13:01;99496.91;;;26.73
75428;BMP280;64008;55.612;37.698;2023-06-22T13:15:28;99501.09;;;26.71
75428;BMP280;64008;55.612;37.698;2023-06-22T13:17:54;99502.75;;;26.75
75428;BMP280;64008;55.612;37.698;2023-06-22T13:20:19;99493.88;;;26.75
75428;BMP280;64008;55.612;37.698;2023-06-22T13:22:45;99495.59;;;26.83
75428;BMP280;64008;55.612;37.698;2023-06-22T13:25:10;99493.25;;;26.81
75428;BMP280;64008;55.612;37.698;2023-06-22T13:27:41;99492.19;;;26.86
75428;BMP280;64008;55.612;37.698;2023-06-22T13:30:08;99489.94;;;26.88
75428;BMP280;64008;55.612;37.698;2023-06-22T13:32:33;99495.00;;;26.90
75428;BMP280;64008;55.612;37.698;2023-06-22T13:34:59;99480.94;;;27.00
75428;BMP280;64008;55.612;37.698;2023-06-22T13:37:25;99494.50;;;27.00
75428;BMP280;64008;55.612;37.698;2023-06-22T13:39:50;99478.22;;;27.00
75428;BMP280;64008;55.612;37.698;2023-06-22T13:42:16;99474.19;;;26.94
75428;BMP280;64008;55.612;37.698;2023-06-22T13:44:41;99474.19;;;26.94
75428;BMP280;64008;55.612;37.698;2023-06-22T13:47:07;99482.13;;;26.87
75428;BMP280;64008;55.612;37.698;2023-06-22T13:49:32;99479.69;;;26.81
75428;BMP280;64008;55.612;37.698;2023-06-22T13:51:59;99477.06;;;26.85
75428;BMP280;64008;55.612;37.698;2023-06-22T13:54:24;99472.97;;;26.91
75428;BMP280;64008;55.612;37.698;2023-06-22T13:56:50;99462.47;;;26.90
75428;BMP280;64008;55.612;37.698;2023-06-22T13:59:15;99467.78;;;26.86
75428;BMP280;64008;55.612;37.698;2023-06-22T14:01:41;99464.19;;;26.82
75428;BMP280;64008;55.612;37.698;2023-06-22T14:04:08;99463.00;;;26.79